Kirishima, Japan
Current Conditions -  °F | °C
As of 9:00 PM on Monday 24 Nov 2014 (Local Time) from RJFK Reporting Station
Rain Showers Rain Showers  
Wind Chill: 59°   Ceiling: 2500
Heat Index: 59°   Visibility: 2.1mi
Dew Point: 59°   Wind: 2mph
Humidity: 100%   Direction: NA
Pressure: 30.03"   Gusts: NA
Location:  31.82°N, 130.77°E
Report Text: RJFK 241200Z VRB02KT 3500 -SHRA BR FEW003 SCT007 BKN025 15/15 Q1017
Loading
Personal Weather Stations






























Interactive Weather Map New forecast layout! Learn more

10-Day Weather Forecast

Advertisements
Track Severe Weather on mobile